Hovedside
METAR-TAF:

METAR-TAF

Lufthavner :

Jyväskylä, Finland

Jyväskylä lufthavn

breddegrad: 62-24N, lengdegrad: 025-41E, høyde over havet: 141 m

Gjeldene værobservasjon

Denne rapporten ble laget for 38 minutter siden, klokken 07:50 UTC
Flau vind
Temperatur -18°C
Luftfuktighet 92%
Trykk 1011 hPa
Sikt: 9000 m
Brutte skyer i en høyde av 2900 ft

METAR: EFJY 220750Z 00000KT 9000 BKN029 M18/M19 Q1011

Tid: 10:28 (08:28 UTC)

Varsel

Denne rapporten ble laget for 3 timer og 2 minutter siden, klokken 05:26 UTC
Varsel gyldig fra 22. klokken 06 UTC til 23. klokken 06 UTC
Vind 2 kt fra skiftende retning
Sikt 10 km eller mer
ingen skyer under 1500 m og ingen bygeskyer
Midlertidig
fra 22. klokken 06 UTC til 22. klokken 21 UTC
Sikt: 2500 m
i en høyde av 1200 ft
lett snø

TAF: EFJY 220526Z 2206/2306 VRB02KT CAVOK TEMPO 2206/2221 2500 -SN VV012

Værobservasjoner og værvarsel for over 4000 flyplasser (METAR- og TAF-rapporter).

Tilgjengelige stasjoner er representert av de røde og gule prikkene på kartet.

Hold musepekeren over prikken for å se navnet på stasjonen.

Klikk så for å se værobservasjoner og -varsler.

For å forandre kartet kan du klikke på den grønne knappen med svart kryss for å zoome inn, på den grønne knappen med strek for å zoome ut, eller på de grønne pilene for å se tilstøtende kart.


METAR-TAF: